This is the latest recevied weather packets stored in our database for station/object TG9SRP-22. If no packets are shown the sender has not sent any weather packets the latest 10 day(s).
| Time | Temp. | Humidity | Pressure | Rain* | Wind** | Luminosity | Snow |
|---|---|---|---|---|---|---|---|
| 1777396777 | 24.44° C | 56% | 1014 hPa | 0 mm | - | - | - |
| 1777396176 | 25° C | 55% | 1014 hPa | 0 mm | - | - | - |
| 1777395576 | 23.33° C | 64% | 1015 hPa | 0 mm | - | - | - |
| 1777394975 | 22.22° C | 56% | 1015 hPa | 0 mm | - | - | - |
| 1777394375 | 22.22° C | 56% | 1015 hPa | 0 mm | - | - | - |
| 1777393774 | 22.78° C | 56% | 1015 hPa | 0 mm | - | - | - |
| 1777393173 | 22.22° C | 61% | 1015 hPa | 0 mm | - | - | - |
| 1777392573 | 23.33° C | 64% | 1015 hPa | 0 mm | - | - | - |
| 1777391972 | 21.67° C | 74% | 1015 hPa | 0 mm | - | - | - |
| 1777391372 | 21.67° C | 74% | 1015 hPa | 0 mm | - | - | - |
| 1777390771 | 21.11° C | 60% | 1015 hPa | 0 mm | - | - | - |
| 1777390170 | 21.11° C | 60% | 1015 hPa | 0 mm | - | - | - |
| 1777389570 | 20° C | 60% | 1015 hPa | 0 mm | - | - | - |
| 1777388969 | 20.56° C | 60% | 1015 hPa | 0 mm | - | - | - |
| 1777388369 | 21.11° C | 60% | 1016 hPa | 0 mm | - | - | - |
| 1777387768 | 18.33° C | 77% | 1016 hPa | 0 mm | - | - | - |
| 1777387168 | 18.33° C | 77% | 1016 hPa | 0 mm | - | - | - |
| 1777386567 | 17.78° C | 73% | 1016 hPa | 0 mm | - | - | - |
| 1777385966 | 18.33° C | 73% | 1016 hPa | 0 mm | - | - | - |
| 1777385366 | 18.89° C | 73% | 1016 hPa | 0 mm | - | - | - |
| 1777384765 | 16.11° C | 82% | 1016 hPa | 0 mm | - | - | - |
| 1777384165 | 16.11° C | 82% | 1016 hPa | 0 mm | - | - | - |
| 1777383564 | 14.44° C | 85% | 1016 hPa | 0 mm | - | - | - |
| 1777382964 | 15.56° C | 85% | 1016 hPa | 0 mm | - | - | - |
| 1777382363 | 14.44° C | 86% | 1016 hPa | 0 mm | - | - | - |
* Rain latest hour (hover to see other rain measurements)
** Current wind speed in m/s (hover to see current wind gust speed)